SFFFELTS FLD
METARs for airports near SFF, sorted by distance:
N 0 nm 1956' KSFF 081953Z 00000KT 10SM CLR 34/01 A3000
SW 9 nm 2385' KGEG 081953Z 23006KT 10SM CLR 32/02 A3002
W 14 nm 2462' KSKA 081958Z 29005KT 10SM CLR 33/03 A3000
N 17 nm 2210' KDEW 081953Z 00000KT 10SM CLR 32/06 A3001
E 21 nm 2320' KCOE 081956Z 14005KT 10SM CLR 32/05 A3003
NE 48 nm 2131' KSZT 082035Z 18007KT 7SM CLR 31/06 A3000
S 57 nm 2566' KPUW 081953Z 00000KT 10SM CLR 31/02 A3005
S 79 nm 1442' KLWS 081956Z VRB03KT 10SM CLR 33/04 A2996
E 82 nm 2466' KTHM 081855Z 00000KT 10SM 31/08 A3006
W 85 nm 1188' KMWH 081952Z 21008KT 10SM CLR 33/07 A2994
W 91 nm 1276' KEPH 081953Z 21006KT 10SM CLR 34/07 A2993
NW 99 nm 1304' KOMK 081953Z 15004KT 10SM CLR 34/05 A2994
TAFs for airports near SFF, sorted by distance:
N 0 nm 1956' KSFF KSFF 081722Z 0818/0918 VRB04KT P6SM SKC
  FM082100 23005KT P6SM SKC
  FM090200 VRB02KT P6SM SCT250
SW 9 nm 2385' KGEG KGEG 081722Z 0818/0918 19008KT P6SM SKC
  FM082000 23007KT P6SM SKC
  FM090300 10004KT P6SM FEW250
  FM091300 06006KT P6SM SCT150 BKN200
W 14 nm 2462' KSKA TAF KSKA 081900Z 0819/1001 19008KT 9999 SKC QNH2990INS WND 07009KT AFT 0903 TX35/0823Z TN16/0912Z
E 21 nm 2320' KCOE KCOE 081722Z 0818/0918 14006KT P6SM SKC
  FM082200 23007KT P6SM SKC
  FM090300 07005KT P6SM FEW250
  FM091200 06011KT P6SM SCT150 SCT200
S 57 nm 2566' KPUW KPUW 081722Z 0818/0918 17007KT P6SM SKC
  FM082300 33004KT P6SM SKC
  FM090300 VRB03KT P6SM FEW250
  FM091200 11008KT P6SM SCT150 BKN200
S 79 nm 1442' KLWS KLWS 081722Z 0818/0918 02005KT P6SM SKC
  FM090300 VRB04KT P6SM SCT250
  FM091100 VRB03KT P6SM SCT150 BKN200
W 85 nm 1188' KMWH KMWH 081722Z 0818/0918 17006KT P6SM SKC
  FM082200 20007KT P6SM FEW250
  FM090500 03005KT P6SM SCT150 BKN200

Shortcut to this page: http://wxbay.com.

Data may contain errors.